createdAt,value
2018-04-17T00:01:26.732Z,13.30
2018-04-17T00:03:54.370Z,13.20
2018-04-17T00:06:21.839Z,13.30
2018-04-17T00:08:49.332Z,13.30
2018-04-17T00:11:17.579Z,13.30
2018-04-17T00:13:45.066Z,13.20
2018-04-17T00:16:13.314Z,13.30
2018-04-17T00:18:40.822Z,13.30
2018-04-17T00:21:08.302Z,13.30
2018-04-17T00:23:35.920Z,13.20
2018-04-17T00:26:04.156Z,13.20
2018-04-17T00:28:31.632Z,13.20
2018-04-17T00:30:59.888Z,13.10
2018-04-17T00:33:27.376Z,13.10
2018-04-17T00:35:55.645Z,13.10
2018-04-17T00:38:23.120Z,13.10
2018-04-17T00:40:51.380Z,13.10
2018-04-17T00:43:19.629Z,13.10
2018-04-17T00:45:47.117Z,13.10
2018-04-17T00:48:15.363Z,13.10
2018-04-17T00:50:42.859Z,13.10
2018-04-17T00:53:22.917Z,13.20
2018-04-17T00:55:51.166Z,13.20
2018-04-17T00:58:20.160Z,13.10
2018-04-17T01:00:49.142Z,13.20
2018-04-17T01:03:16.631Z,13.10
2018-04-17T01:05:44.112Z,13.20
2018-04-17T01:08:11.580Z,13.20
2018-04-17T01:10:39.064Z,13.10
2018-04-17T01:13:06.566Z,13.10
2018-04-17T01:15:34.801Z,13.10
2018-04-17T01:18:02.291Z,13.10
2018-04-17T01:20:30.541Z,13.10
2018-04-17T01:22:58.091Z,13.00
2018-04-17T01:25:25.586Z,13.00
2018-04-17T01:27:53.860Z,13.00
2018-04-17T01:30:22.117Z,13.00
2018-04-17T01:32:50.373Z,13.00
2018-04-17T01:35:17.853Z,13.00
2018-04-17T01:37:46.109Z,13.00
2018-04-17T01:40:13.589Z,13.00
2018-04-17T01:42:41.079Z,13.00
2018-04-17T01:45:09.337Z,13.00
2018-04-17T01:47:37.577Z,13.00
2018-04-17T01:50:05.053Z,13.00
2018-04-17T01:52:32.534Z,13.00
2018-04-17T01:55:00.029Z,13.10
2018-04-17T01:57:27.495Z,13.00
2018-04-17T01:59:54.977Z,13.00
2018-04-17T02:02:23.966Z,12.90
2018-04-17T02:04:51.455Z,12.90
2018-04-17T02:07:19.693Z,12.90
2018-04-17T02:09:47.174Z,12.90
2018-04-17T02:12:16.168Z,12.80
2018-04-17T02:14:44.434Z,12.90
2018-04-17T02:17:12.677Z,12.80
2018-04-17T02:19:40.165Z,12.80
2018-04-17T02:22:08.409Z,12.80
2018-04-17T02:24:35.910Z,12.80
2018-04-17T02:27:04.165Z,12.80
2018-04-17T02:29:31.644Z,12.70
2018-04-17T02:31:59.898Z,12.80
2018-04-17T02:34:27.383Z,12.70
2018-04-17T02:36:55.661Z,12.70
2018-04-17T02:39:23.905Z,12.70
2018-04-17T02:41:51.417Z,12.70
2018-04-17T02:44:18.907Z,12.70
2018-04-17T02:46:46.408Z,12.60
2018-04-17T02:49:13.886Z,12.60
2018-04-17T02:51:42.126Z,12.60
2018-04-17T02:54:10.369Z,12.60
2018-04-17T02:56:37.853Z,12.60
2018-04-17T02:59:05.321Z,12.50
2018-04-17T03:01:33.586Z,12.50
2018-04-17T03:04:01.070Z,12.50
2018-04-17T03:06:29.443Z,12.50
2018-04-17T03:08:57.677Z,12.50
2018-04-17T03:11:25.153Z,12.50
2018-04-17T03:13:53.581Z,12.50
2018-04-17T03:16:21.055Z,12.40
2018-04-17T03:18:48.524Z,12.50
2018-04-17T03:21:16.024Z,12.50
2018-04-17T03:23:44.264Z,12.40
2018-04-17T03:26:11.752Z,12.30
2018-04-17T03:28:39.991Z,12.30
2018-04-17T03:31:07.468Z,12.30
2018-04-17T03:33:34.943Z,12.40
2018-04-17T03:36:03.193Z,12.30
2018-04-17T03:38:30.664Z,12.20
2018-04-17T03:40:58.908Z,12.20
2018-04-17T03:43:26.512Z,12.20
2018-04-17T03:45:54.748Z,12.20
2018-04-17T03:48:22.220Z,12.20
2018-04-17T03:50:49.731Z,12.20
2018-04-17T03:53:17.207Z,12.20
2018-04-17T03:55:44.672Z,12.20
2018-04-17T03:58:12.156Z,12.20
2018-04-17T04:00:39.636Z,12.20
2018-04-17T04:03:07.880Z,12.20
2018-04-17T04:05:35.356Z,12.10
2018-04-17T04:08:03.601Z,12.20
2018-04-17T04:10:31.098Z,12.20
2018-04-17T04:12:59.357Z,12.20
2018-04-17T04:15:27.593Z,12.20
2018-04-17T04:18:07.105Z,12.20
2018-04-17T04:20:46.500Z,12.20
2018-04-17T04:23:25.918Z,12.20
2018-04-17T04:26:05.460Z,12.20
2018-04-17T04:28:39.064Z,12.20
2018-04-17T04:31:06.564Z,12.20
2018-04-17T04:33:34.805Z,12.20
2018-04-17T04:36:02.297Z,12.20
2018-04-17T04:38:30.541Z,12.20
2018-04-17T04:40:58.013Z,12.20
2018-04-17T04:43:26.996Z,12.30
2018-04-17T04:45:54.489Z,12.30
2018-04-17T04:48:22.756Z,12.40
2018-04-17T04:50:51.006Z,12.40
2018-04-17T04:53:18.495Z,12.40
2018-04-17T04:55:46.736Z,12.40
2018-04-17T04:58:14.216Z,12.40
2018-04-17T05:00:42.636Z,12.30
2018-04-17T05:03:10.105Z,12.30
2018-04-17T05:05:37.588Z,12.20
2018-04-17T05:08:05.068Z,12.20
2018-04-17T05:10:33.308Z,12.20
2018-04-17T05:13:00.776Z,12.20
2018-04-17T05:15:28.259Z,12.20
2018-04-17T05:17:56.500Z,12.20
2018-04-17T05:20:23.985Z,12.20
2018-04-17T05:22:52.967Z,12.30
2018-04-17T05:25:21.204Z,12.30
2018-04-17T05:27:48.673Z,12.30
2018-04-17T05:30:16.152Z,12.30
2018-04-17T05:32:43.633Z,12.30
2018-04-17T05:35:11.900Z,12.30
2018-04-17T05:37:39.369Z,12.30
2018-04-17T05:40:07.627Z,12.40
2018-04-17T05:42:35.106Z,12.30
2018-04-17T05:45:03.377Z,12.40
2018-04-17T05:47:31.613Z,12.50
2018-04-17T05:49:59.084Z,12.40
2018-04-17T05:52:26.595Z,12.50
2018-04-17T05:54:54.047Z,12.60
2018-04-17T05:57:21.997Z,12.60
2018-04-17T05:59:50.184Z,12.70
2018-04-17T06:02:17.640Z,12.60
2018-04-17T06:04:45.093Z,12.70
2018-04-17T06:07:12.525Z,12.80
2018-04-17T06:09:40.728Z,12.90
2018-04-17T06:12:08.177Z,12.80
2018-04-17T06:14:35.622Z,12.90
2018-04-17T06:17:03.826Z,13.00
2018-04-17T06:19:31.257Z,13.00
2018-04-17T06:21:59.574Z,13.10
2018-04-17T06:24:27.004Z,13.00
2018-04-17T06:26:54.442Z,13.20
2018-04-17T06:29:22.649Z,13.30
2018-04-17T06:31:50.108Z,13.20
2018-04-17T06:34:17.532Z,13.30
2018-04-17T06:36:45.745Z,13.40
2018-04-17T06:39:13.181Z,13.40
2018-04-17T06:41:40.636Z,13.50
2018-04-17T06:44:08.832Z,13.60
2018-04-17T06:46:36.328Z,13.50
2018-04-17T06:49:04.544Z,13.70
2018-04-17T06:51:32.029Z,13.60
2018-04-17T06:53:59.476Z,13.70
2018-04-17T06:56:26.916Z,13.80
2018-04-17T06:58:54.357Z,13.90
2018-04-17T07:01:21.800Z,13.90
2018-04-17T07:03:50.020Z,14.20
2018-04-17T07:06:17.476Z,14.10
2018-04-17T07:08:45.672Z,14.40
2018-04-17T07:11:13.128Z,14.40
2018-04-17T07:13:40.571Z,14.50
2018-04-17T07:16:08.013Z,14.60
2018-04-17T07:18:35.472Z,14.80
2018-04-17T07:21:02.916Z,14.90
2018-04-17T07:23:30.339Z,15.10
2018-04-17T07:25:58.560Z,15.50
2018-04-17T07:28:26.017Z,15.50
2018-04-17T07:30:53.441Z,15.70
2018-04-17T07:33:21.768Z,16.10
2018-04-17T07:35:49.212Z,16.10
2018-04-17T07:38:16.669Z,16.20
2018-04-17T07:40:44.125Z,16.40
2018-04-17T07:43:11.576Z,16.40
2018-04-17T07:45:39.061Z,16.40
2018-04-17T07:48:23.352Z,16.60
2018-04-17T07:50:51.560Z,17.30
2018-04-17T07:53:19.014Z,17.20
2018-04-17T07:55:46.462Z,17.10
2018-04-17T07:58:14.666Z,16.90
2018-04-17T08:00:42.102Z,16.90
2018-04-17T08:03:10.540Z,17.00
2018-04-17T08:05:38.737Z,17.60
2018-04-17T08:08:06.345Z,17.60
2018-04-17T08:10:33.790Z,17.80
2018-04-17T08:13:01.238Z,17.90
2018-04-17T08:15:28.677Z,18.20
2018-04-17T08:17:56.114Z,18.20
2018-04-17T08:20:24.336Z,18.90
2018-04-17T08:22:51.774Z,18.90
2018-04-17T08:25:19.220Z,19.20
2018-04-17T08:27:46.653Z,19.50
2018-04-17T08:30:14.880Z,19.90
2018-04-17T08:32:42.307Z,19.90
2018-04-17T08:35:09.757Z,20.00
2018-04-17T08:37:37.204Z,20.30
2018-04-17T08:40:05.483Z,21.00
2018-04-17T08:42:33.682Z,21.30
2018-04-17T08:45:01.129Z,21.20
2018-04-17T08:47:28.556Z,21.60
2018-04-17T08:49:56.792Z,21.30
2018-04-17T08:52:24.232Z,21.20
2018-04-17T08:54:51.685Z,21.30
2018-04-17T08:57:19.122Z,21.50
2018-04-17T08:59:46.581Z,21.70
2018-04-17T09:02:14.013Z,21.70
2018-04-17T09:04:42.228Z,22.30
2018-04-17T09:07:09.689Z,22.20
2018-04-17T09:09:37.142Z,22.60
2018-04-17T09:12:04.584Z,22.70
2018-04-17T09:14:32.028Z,22.80
2018-04-17T09:17:00.238Z,23.20
2018-04-17T09:19:27.683Z,23.10
2018-04-17T09:21:55.113Z,23.10
2018-04-17T09:24:23.323Z,23.80
2018-04-17T09:26:50.790Z,23.80
2018-04-17T09:29:18.291Z,23.60
2018-04-17T09:31:45.685Z,24.10
2018-04-17T09:34:13.122Z,25.00
2018-04-17T09:36:40.562Z,25.10
2018-04-17T09:39:08.774Z,26.90
2018-04-17T09:41:36.227Z,26.80
2018-04-17T09:44:03.691Z,27.20
2018-04-17T09:46:31.146Z,26.80
2018-04-17T09:48:58.589Z,27.10
2018-04-17T09:51:26.030Z,27.90
2018-04-17T09:53:54.355Z,28.10
2018-04-17T09:56:21.789Z,28.10
2018-04-17T09:58:49.221Z,28.00
2018-04-17T10:01:22.328Z,26.40
2018-04-17T10:03:50.511Z,25.20
2018-04-17T10:06:17.945Z,25.10
2018-04-17T10:08:45.432Z,25.80
2018-04-17T10:11:13.606Z,27.50
2018-04-17T10:13:41.035Z,27.50
2018-04-17T10:16:08.476Z,27.80
2018-04-17T10:18:36.678Z,28.40
2018-04-17T10:21:04.120Z,28.40
2018-04-17T10:23:31.568Z,27.60
2018-04-17T10:25:59.762Z,27.80
2018-04-17T10:28:27.266Z,27.80
2018-04-17T10:30:55.460Z,27.90
2018-04-17T10:33:23.662Z,28.10
2018-04-17T10:35:51.884Z,28.50
2018-04-17T10:38:19.316Z,28.40
2018-04-17T10:40:46.759Z,27.40
2018-04-17T10:43:14.192Z,25.80
2018-04-17T10:45:42.416Z,23.60
2018-04-17T10:48:09.847Z,23.50
2018-04-17T10:50:37.298Z,23.10
2018-04-17T10:53:04.736Z,24.20
2018-04-17T10:55:32.929Z,25.80
2018-04-17T10:58:00.392Z,25.70
2018-04-17T11:00:27.827Z,27.40
2018-04-17T11:02:56.050Z,28.90
2018-04-17T11:05:23.472Z,28.80
2018-04-17T11:07:51.788Z,30.30
2018-04-17T11:10:19.227Z,30.20
2018-04-17T11:12:46.672Z,31.00
2018-04-17T11:15:14.096Z,31.40
2018-04-17T11:17:42.426Z,31.60
2018-04-17T11:20:09.857Z,31.60
2018-04-17T11:22:37.337Z,32.60
2018-04-17T11:25:04.793Z,32.60
2018-04-17T11:27:32.220Z,32.40
2018-04-17T11:29:59.675Z,32.40
2018-04-17T11:32:27.109Z,32.50
2018-04-17T11:34:55.327Z,32.40
2018-04-17T11:37:22.752Z,32.30
2018-04-17T11:39:50.205Z,31.60
2018-04-17T11:42:18.410Z,29.20
2018-04-17T11:44:45.836Z,29.00
2018-04-17T11:47:14.052Z,26.90
2018-04-17T11:49:41.494Z,26.80
2018-04-17T11:52:08.942Z,26.00
2018-04-17T11:54:36.381Z,25.20
2018-04-17T11:59:28.533Z,24.10
2018-04-17T12:01:56.737Z,23.80
2018-04-17T12:04:24.185Z,23.70
2018-04-17T12:06:51.617Z,23.40
2018-04-17T12:09:19.809Z,23.00
2018-04-17T12:11:47.233Z,22.90
2018-04-17T12:14:15.446Z,23.10
2018-04-17T12:16:42.888Z,23.10
2018-04-17T12:19:11.089Z,23.40
2018-04-17T12:21:38.521Z,23.30
2018-04-17T12:24:05.952Z,23.40
2018-04-17T12:26:34.172Z,23.50
2018-04-17T12:29:01.634Z,23.50
2018-04-17T12:31:29.081Z,23.70
2018-04-17T12:33:56.512Z,23.80
2018-04-17T12:36:24.733Z,23.40
2018-04-17T12:38:52.169Z,23.40
2018-04-17T12:41:19.613Z,23.20
2018-04-17T12:43:47.045Z,22.90
2018-04-17T12:46:15.397Z,22.20
2018-04-17T12:48:43.594Z,22.10
2018-04-17T12:51:11.805Z,21.90
2018-04-17T12:53:39.236Z,21.80
2018-04-17T12:56:06.718Z,21.70
2018-04-17T12:58:34.185Z,21.50
2018-04-17T13:01:01.608Z,21.40
2018-04-17T13:03:29.076Z,21.50
2018-04-17T13:05:56.570Z,21.60
2018-04-17T13:08:24.005Z,21.80
2018-04-17T13:10:51.529Z,22.10
2018-04-17T13:13:19.740Z,22.40
2018-04-17T13:15:47.172Z,22.40
2018-04-17T13:18:14.617Z,22.60
2018-04-17T13:20:42.811Z,22.60
2018-04-17T13:23:10.301Z,22.60
2018-04-17T13:25:37.748Z,22.50
2018-04-17T13:28:05.201Z,22.30
2018-04-17T13:30:32.641Z,22.30
2018-04-17T13:33:00.245Z,22.40
2018-04-17T13:35:27.681Z,22.50
2018-04-17T13:37:55.106Z,22.50
2018-04-17T13:40:22.564Z,22.50
2018-04-17T13:42:50.156Z,22.50
2018-04-17T13:45:17.598Z,22.50
2018-04-17T13:47:45.056Z,22.70
2018-04-17T13:50:13.241Z,22.50
2018-04-17T13:52:40.685Z,22.50
2018-04-17T13:55:08.129Z,22.20
2018-04-17T13:57:35.565Z,22.00
2018-04-17T14:00:03.777Z,21.60
2018-04-17T14:02:31.216Z,21.50
2018-04-17T14:04:58.800Z,21.60
2018-04-17T14:07:26.249Z,21.50
2018-04-17T14:09:53.731Z,21.50
2018-04-17T14:12:21.884Z,21.60
2018-04-17T14:14:49.326Z,21.60
2018-04-17T14:17:16.847Z,21.70
2018-04-17T14:19:44.229Z,21.70
2018-04-17T14:22:11.665Z,21.80
2018-04-17T14:24:39.880Z,21.90
2018-04-17T14:27:07.317Z,21.80
2018-04-17T14:29:34.764Z,21.80
2018-04-17T14:32:02.970Z,21.90
2018-04-17T14:34:30.422Z,21.80
2018-04-17T14:36:57.865Z,21.90
2018-04-17T14:39:25.309Z,21.90
2018-04-17T14:41:52.757Z,22.00
2018-04-17T14:44:20.965Z,21.80
2018-04-17T14:46:48.420Z,21.80
2018-04-17T14:49:15.873Z,21.80
2018-04-17T14:51:43.323Z,21.80
2018-04-17T14:54:10.789Z,21.70
2018-04-17T14:56:38.389Z,21.60
2018-04-17T14:59:05.821Z,21.50
2018-04-17T15:01:33.263Z,21.40
2018-04-17T15:04:00.261Z,21.30
2018-04-17T15:06:28.023Z,21.10
2018-04-17T15:08:56.244Z,21.00
2018-04-17T15:11:23.670Z,21.00
2018-04-17T15:13:51.917Z,20.90
2018-04-17T15:16:20.108Z,20.80
2018-04-17T15:18:48.314Z,20.80
2018-04-17T15:21:15.752Z,20.70
2018-04-17T15:23:44.081Z,20.50
2018-04-17T15:26:11.494Z,20.40
2018-04-17T15:28:39.701Z,20.30
2018-04-17T15:31:07.153Z,20.30
2018-04-17T15:33:34.564Z,20.20
2018-04-17T15:36:02.828Z,20.20
2018-04-17T15:38:31.044Z,20.00
2018-04-17T15:40:58.512Z,20.00
2018-04-17T15:43:25.939Z,20.00
2018-04-17T15:45:54.152Z,19.90
2018-04-17T15:48:21.584Z,19.80
2018-04-17T15:50:49.073Z,19.90
2018-04-17T15:53:17.244Z,19.70
2018-04-17T15:55:44.690Z,19.70
2018-04-17T15:58:12.140Z,19.70
2018-04-17T16:00:39.585Z,19.70
2018-04-17T16:03:07.770Z,19.60
2018-04-17T16:05:35.208Z,19.50
2018-04-17T16:08:02.667Z,19.60
2018-04-17T16:10:30.880Z,19.50
2018-04-17T16:12:58.348Z,19.40
2018-04-17T16:15:25.340Z,19.40
2018-04-17T16:17:53.088Z,19.40
2018-04-17T16:20:21.308Z,19.40
2018-04-17T16:22:48.816Z,19.30
2018-04-17T16:25:17.042Z,19.30
2018-04-17T16:27:44.470Z,19.20
2018-04-17T16:30:12.672Z,19.20
2018-04-17T16:32:40.121Z,19.20
2018-04-17T16:35:07.552Z,19.20
2018-04-17T16:37:35.769Z,19.20
2018-04-17T16:40:03.209Z,19.10
2018-04-17T16:42:30.667Z,19.10
2018-04-17T16:44:58.165Z,19.10
2018-04-17T16:47:25.605Z,19.00
2018-04-17T16:49:53.049Z,19.00
2018-04-17T16:52:20.496Z,19.00
2018-04-17T16:54:47.955Z,19.00
2018-04-17T16:57:15.433Z,18.90
2018-04-17T16:59:42.880Z,18.90
2018-04-17T17:02:10.318Z,18.90
2018-04-17T17:04:37.775Z,18.90
2018-04-17T17:09:39.139Z,18.90
2018-04-17T17:12:06.583Z,18.80
2018-04-17T17:14:35.666Z,18.80
2018-04-17T17:17:03.888Z,18.70
2018-04-17T17:19:31.345Z,18.70
2018-04-17T17:21:58.806Z,18.70
2018-04-17T17:24:26.281Z,18.70
2018-04-17T17:26:53.718Z,18.70
2018-04-17T17:29:21.175Z,18.60
2018-04-17T17:31:48.774Z,18.60
2018-04-17T17:34:17.708Z,18.40
2018-04-17T17:36:45.138Z,18.40
2018-04-17T17:39:13.365Z,18.40
2018-04-17T17:41:40.825Z,18.40
2018-04-17T17:44:08.269Z,18.40
2018-04-17T17:46:35.735Z,18.40
2018-04-17T17:49:03.186Z,18.30
2018-04-17T17:51:30.637Z,18.30
2018-04-17T17:53:58.075Z,18.30
2018-04-17T17:56:25.520Z,18.20
2018-04-17T17:58:52.948Z,18.20
2018-04-17T18:01:21.172Z,18.10
2018-04-17T18:03:49.517Z,18.00
2018-04-17T18:06:17.723Z,18.00
2018-04-17T18:08:45.157Z,18.00
2018-04-17T18:11:12.658Z,18.00
2018-04-17T18:13:40.050Z,18.00
2018-04-17T18:16:08.266Z,17.90
2018-04-17T18:18:35.714Z,17.80
2018-04-17T18:21:03.160Z,17.90
2018-04-17T18:23:30.585Z,17.80
2018-04-17T18:25:58.785Z,17.70
2018-04-17T18:28:26.249Z,17.70
2018-04-17T18:30:53.683Z,17.70
2018-04-17T18:33:21.906Z,17.60
2018-04-17T18:35:49.361Z,17.60
2018-04-17T18:38:16.808Z,17.60
2018-04-17T18:40:44.328Z,17.50
2018-04-17T18:43:12.542Z,17.40
2018-04-17T18:45:40.022Z,17.30
2018-04-17T18:48:07.439Z,17.40
2018-04-17T18:50:34.877Z,17.30
2018-04-17T18:53:03.090Z,17.30
2018-04-17T18:55:30.537Z,17.20
2018-04-17T18:57:57.995Z,17.20
2018-04-17T19:00:25.526Z,17.10
2018-04-17T19:02:53.766Z,17.10
2018-04-17T19:05:21.210Z,17.00
2018-04-17T19:07:48.752Z,17.00
2018-04-17T19:10:16.197Z,17.00
2018-04-17T19:12:43.643Z,16.90
2018-04-17T19:15:11.121Z,16.90
2018-04-17T19:17:38.572Z,16.90
2018-04-17T19:20:06.037Z,16.80
2018-04-17T19:22:33.544Z,16.70
2018-04-17T19:25:01.770Z,16.60
2018-04-17T19:27:29.229Z,16.60
2018-04-17T19:29:56.674Z,16.60
2018-04-17T19:32:24.115Z,16.50
2018-04-17T19:34:51.558Z,16.50
2018-04-17T19:37:19.803Z,16.40
2018-04-17T19:39:47.266Z,16.30
2018-04-17T19:42:14.705Z,16.40
2018-04-17T19:44:42.161Z,16.30
2018-04-17T19:47:09.648Z,16.30
2018-04-17T19:49:37.448Z,16.20
2018-04-17T19:52:04.897Z,16.20
2018-04-17T19:54:32.468Z,16.20
2018-04-17T19:56:59.905Z,16.10
2018-04-17T19:59:27.354Z,16.10
2018-04-17T20:01:55.886Z,16.10
2018-04-17T20:04:23.325Z,16.00
2018-04-17T20:06:50.779Z,16.10
2018-04-17T20:09:18.223Z,16.10
2018-04-17T20:11:45.669Z,16.00
2018-04-17T20:14:13.870Z,15.90
2018-04-17T20:16:41.308Z,15.90
2018-04-17T20:19:08.760Z,15.90
2018-04-17T20:21:36.275Z,15.90
2018-04-17T20:24:03.719Z,15.90
2018-04-17T20:26:31.185Z,15.90
2018-04-17T20:28:58.633Z,15.90
2018-04-17T20:31:26.084Z,15.90
2018-04-17T20:33:53.544Z,15.80
2018-04-17T20:36:20.996Z,15.80
2018-04-17T20:38:48.459Z,15.80
2018-04-17T20:41:15.935Z,15.70
2018-04-17T20:43:43.575Z,15.60
2018-04-17T20:46:11.035Z,15.60
2018-04-17T20:48:38.492Z,15.60
2018-04-17T20:51:06.358Z,15.50
2018-04-17T20:53:33.813Z,15.50
2018-04-17T20:56:01.346Z,15.50
2018-04-17T20:58:28.794Z,15.50
2018-04-17T21:00:56.292Z,15.50
2018-04-17T21:03:23.736Z,15.40
2018-04-17T21:05:51.197Z,15.40
2018-04-17T21:08:18.637Z,15.40
2018-04-17T21:10:46.161Z,15.30
2018-04-17T21:13:13.566Z,15.30
2018-04-17T21:15:41.006Z,15.30
2018-04-17T21:18:08.448Z,15.20
2018-04-17T21:20:35.901Z,15.20
2018-04-17T21:23:03.352Z,15.10
2018-04-17T21:25:30.815Z,15.10
2018-04-17T21:27:59.007Z,15.10
2018-04-17T21:30:26.461Z,15.00
2018-04-17T21:32:53.912Z,15.00
2018-04-17T21:35:21.355Z,15.00
2018-04-17T21:37:48.835Z,15.00
2018-04-17T21:40:16.286Z,15.00
2018-04-17T21:42:43.738Z,15.00
2018-04-17T21:45:11.202Z,15.00
2018-04-17T21:47:38.656Z,14.90
2018-04-17T21:50:06.116Z,14.90
2018-04-17T21:52:33.546Z,14.90
2018-04-17T21:55:01.757Z,14.80
2018-04-17T21:57:29.253Z,14.80
2018-04-17T21:59:56.685Z,14.80
2018-04-17T22:02:24.121Z,14.80
2018-04-17T22:04:51.568Z,14.80
2018-04-17T22:07:19.014Z,14.80
2018-04-17T22:09:46.495Z,14.70
2018-04-17T22:12:13.943Z,14.70
2018-04-17T22:14:41.389Z,14.70
2018-04-17T22:17:08.856Z,14.70
2018-04-17T22:19:36.310Z,14.70
2018-04-17T22:22:03.765Z,14.60
2018-04-17T22:24:31.218Z,14.70
2018-04-17T22:26:58.635Z,14.60
2018-04-17T22:29:26.856Z,14.60
2018-04-17T22:31:54.301Z,14.50
2018-04-17T22:34:21.750Z,14.50
2018-04-17T22:36:49.205Z,14.50
2018-04-17T22:39:16.652Z,14.50
2018-04-17T22:41:44.907Z,14.50
2018-04-17T22:44:12.324Z,14.40
2018-04-17T22:46:39.770Z,14.50
2018-04-17T22:49:07.206Z,14.40
2018-04-17T22:51:34.639Z,14.40
2018-04-17T22:54:02.084Z,14.40
2018-04-17T22:56:29.527Z,14.30
2018-04-17T22:58:57.038Z,14.30
2018-04-17T23:01:25.232Z,14.20
2018-04-17T23:03:52.676Z,14.20
2018-04-17T23:06:20.115Z,14.20
2018-04-17T23:08:48.337Z,14.10
2018-04-17T23:11:15.755Z,14.00
2018-04-17T23:13:43.193Z,14.10
2018-04-17T23:16:11.403Z,14.00
2018-04-17T23:18:38.829Z,14.00
2018-04-17T23:21:07.049Z,13.90
2018-04-17T23:23:34.469Z,13.90
2018-04-17T23:26:01.916Z,13.90
2018-04-17T23:28:29.373Z,13.90
2018-04-17T23:30:56.811Z,13.80
2018-04-17T23:33:24.244Z,13.80
2018-04-17T23:35:51.687Z,13.70
2018-04-17T23:38:19.135Z,13.70
2018-04-17T23:40:46.571Z,13.60
2018-04-17T23:43:14.000Z,13.60
2018-04-17T23:45:41.449Z,13.60
2018-04-17T23:48:08.878Z,13.60
2018-04-17T23:50:36.314Z,13.60
2018-04-17T23:53:03.774Z,13.60
2018-04-17T23:55:31.233Z,13.50
2018-04-17T23:57:58.706Z,13.50
